Time;durP1;ratioP1;P1;durP2;ratioP2;P2;SDS_P1;SDS_P2;PMS_P1;PMS_P2;Temp;Humidity;BMP_temperature;BMP_pressure;BME280_temperature;BME280_humidity;BME280_pressure;Samples;Min_cycle;Max_cycle;Signal;HPM_P1;HPM_P2
2022/05/08 00:02:24;;;;;;;25.97;21.13;;;13.80;99.90;;;;;;4976330;28;20171;-79
2022/05/08 00:04:52;;;;;;;30.43;21.33;;;13.80;99.90;;;;;;4976057;28;20175;-79
2022/05/08 00:07:19;;;;;;;22.70;14.93;;;13.80;99.90;;;;;;4975370;28;20190;-79
2022/05/08 00:09:45;;;;;;;20.87;15.23;;;13.70;99.90;;;;;;4975296;28;20707;-78
2022/05/08 00:12:11;;;;;;;16.70;13.37;;;13.60;99.90;;;;;;4976878;28;20567;-80
2022/05/08 00:14:38;;;;;;;16.47;11.90;;;13.60;99.90;;;;;;4975405;28;20242;-79
2022/05/08 00:17:04;;;;;;;13.77;10.80;;;13.50;99.90;;;;;;4977262;28;20201;-80
2022/05/08 00:19:30;;;;;;;14.80;9.70;;;13.50;99.90;;;;;;4976815;28;20252;-79
2022/05/08 00:21:55;;;;;;;13.87;10.37;;;13.40;99.90;;;;;;4983288;28;20174;-80
2022/05/08 00:24:21;;;;;;;15.00;10.70;;;13.30;99.90;;;;;;4979056;28;20190;-82
2022/05/08 00:26:46;;;;;;;13.43;9.50;;;13.30;99.90;;;;;;4975185;28;20186;-79
2022/05/08 00:29:12;;;;;;;13.80;9.93;;;13.40;99.90;;;;;;4975240;28;20202;-80
2022/05/08 00:31:38;;;;;;;11.60;10.27;;;13.20;99.90;;;;;;4976380;28;20202;-79
2022/05/08 00:34:04;;;;;;;12.30;9.73;;;13.10;99.90;;;;;;4976449;28;20178;-79
2022/05/08 00:36:29;;;;;;;12.07;9.40;;;13.10;99.90;;;;;;4975185;28;20242;-80
2022/05/08 00:38:55;;;;;;;11.33;8.80;;;13.00;99.90;;;;;;4975338;28;20199;-80
2022/05/08 00:41:21;;;;;;;12.70;8.87;;;12.90;99.90;;;;;;4975592;28;20191;-80
2022/05/08 00:43:47;;;;;;;11.70;9.10;;;12.90;99.90;;;;;;4974627;28;20600;-80
2022/05/08 00:46:13;;;;;;;13.90;9.20;;;12.90;99.90;;;;;;4976086;28;20174;-80
2022/05/08 00:48:41;;;;;;;9.63;8.10;;;12.80;99.90;;;;;;4974766;28;20203;-79
2022/05/08 00:51:08;;;;;;;10.63;8.27;;;12.70;99.90;;;;;;4976396;28;20721;-79
2022/05/08 00:53:40;;;;;;;9.60;7.10;;;12.70;99.90;;;;;;4974703;28;20217;-79
2022/05/08 00:56:10;;;;;;;13.37;6.97;;;12.60;99.90;;;;;;4976635;28;20228;-79
2022/05/08 00:58:37;;;;;;;8.83;5.97;;;12.60;99.90;;;;;;4974962;28;20202;-79
2022/05/08 01:01:04;;;;;;;9.43;6.07;;;12.50;99.90;;;;;;4974989;28;20189;-79
2022/05/08 01:03:30;;;;;;;11.87;5.77;;;12.50;99.90;;;;;;4976265;28;20183;-80
2022/05/08 01:05:57;;;;;;;8.40;5.77;;;12.50;99.90;;;;;;4975862;28;20620;-79
2022/05/08 01:08:24;;;;;;;8.97;5.03;;;12.50;99.90;;;;;;4975067;28;20224;-80
2022/05/08 01:10:51;;;;;;;9.70;5.23;;;12.40;99.90;;;;;;4974103;28;20178;-79
2022/05/08 01:13:17;;;;;;;9.83;5.03;;;12.30;99.90;;;;;;4976836;28;20198;-79
2022/05/08 01:15:48;;;;;;;8.23;4.87;;;12.30;99.90;;;;;;4974777;28;20223;-79
2022/05/08 01:18:15;;;;;;;7.57;4.60;;;12.30;99.90;;;;;;4973016;28;20200;-78
2022/05/08 01:20:43;;;;;;;8.77;5.20;;;12.20;99.90;;;;;;4974422;28;20176;-79
2022/05/08 01:23:09;;;;;;;7.77;4.93;;;12.20;99.90;;;;;;4974585;28;20232;-79
2022/05/08 01:25:43;;;;;;;10.20;4.83;;;12.20;99.90;;;;;;4973433;28;20182;-78
2022/05/08 01:28:09;;;;;;;10.07;4.80;;;12.10;99.90;;;;;;4972581;28;20233;-80
2022/05/08 01:30:35;;;;;;;8.37;5.00;;;12.10;99.90;;;;;;4973251;28;20187;-79
2022/05/08 01:33:01;;;;;;;5.37;4.43;;;12.00;99.90;;;;;;4973187;28;20205;-80
2022/05/08 01:35:30;;;;;;;6.87;4.80;;;12.00;99.90;;;;;;4974922;28;20178;-79
2022/05/08 01:37:55;;;;;;;8.43;5.17;;;11.90;99.90;;;;;;4973745;28;20556;-79
2022/05/08 01:40:21;;;;;;;6.93;4.30;;;11.90;99.90;;;;;;4974304;28;20178;-79
2022/05/08 01:42:46;;;;;;;9.07;4.97;;;11.80;99.90;;;;;;4974086;28;20178;-79
2022/05/08 01:45:12;;;;;;;8.27;4.53;;;11.80;99.90;;;;;;4974032;28;20186;-79
2022/05/08 01:50:23;;;;;;;7.77;4.47;;;11.80;99.90;;;;;;4975291;28;20509;-79
2022/05/08 01:52:49;;;;;;;10.73;4.70;;;11.70;99.90;;;;;;4972598;28;20210;-79
2022/05/08 01:55:14;;;;;;;8.90;4.90;;;11.70;99.90;;;;;;4974194;28;20181;-79
2022/05/08 01:57:40;;;;;;;7.77;4.97;;;11.70;99.90;;;;;;4975743;28;20171;-80
2022/05/08 02:00:06;;;;;;;9.40;4.90;;;11.70;99.90;;;;;;4976259;28;20571;-79
2022/05/08 02:02:32;;;;;;;8.77;5.60;;;11.70;99.90;;;;;;4977569;28;20182;-79
2022/05/08 02:04:59;;;;;;;5.73;4.57;;;11.60;99.90;;;;;;4976728;28;20189;-79
2022/05/08 02:07:25;;;;;;;6.90;4.27;;;11.60;99.90;;;;;;4975813;28;20241;-79
2022/05/08 02:09:51;;;;;;;8.60;4.77;;;11.60;99.90;;;;;;4975900;28;20210;-79
2022/05/08 02:12:16;;;;;;;12.27;4.80;;;11.50;99.90;;;;;;4976211;28;20202;-79
2022/05/08 02:14:43;;;;;;;12.40;6.10;;;11.60;99.90;;;;;;4976565;28;20567;-80
2022/05/08 02:17:09;;;;;;;7.37;4.90;;;11.50;99.90;;;;;;4977394;28;20170;-79
2022/05/08 02:19:34;;;;;;;15.43;6.13;;;11.50;99.90;;;;;;4977675;28;20287;-79
2022/05/08 02:22:00;;;;;;;7.07;4.97;;;11.50;99.90;;;;;;4975793;28;20223;-79
2022/05/08 02:24:25;;;;;;;11.70;5.40;;;11.50;99.90;;;;;;4975755;28;20185;-79
2022/05/08 02:26:51;;;;;;;7.10;5.13;;;11.50;99.90;;;;;;4976804;28;20170;-78
2022/05/08 02:29:16;;;;;;;10.73;5.90;;;11.50;99.90;;;;;;4975802;28;20209;-79
2022/05/08 02:31:42;;;;;;;7.80;5.17;;;11.50;99.90;;;;;;4977018;28;20206;-79
2022/05/08 02:34:07;;;;;;;7.40;4.87;;;11.50;99.90;;;;;;4976268;28;20182;-79
2022/05/08 02:36:33;;;;;;;7.33;5.80;;;11.50;99.90;;;;;;4977213;28;20182;-79
2022/05/08 02:38:59;;;;;;;8.53;5.20;;;11.50;99.90;;;;;;4978035;28;20210;-79
2022/05/08 02:41:24;;;;;;;8.37;5.27;;;11.50;99.90;;;;;;4976374;28;20220;-79
2022/05/08 02:43:50;;;;;;;12.60;7.13;;;11.50;99.90;;;;;;4976383;28;20175;-79
2022/05/08 02:46:15;;;;;;;8.90;5.57;;;11.60;99.90;;;;;;4974929;28;20179;-78
2022/05/08 02:48:40;;;;;;;10.23;5.70;;;11.50;99.90;;;;;;4977312;28;20201;-80
2022/05/08 02:51:07;;;;;;;9.73;6.20;;;11.60;99.90;;;;;;4977201;28;20182;-79
2022/05/08 02:53:33;;;;;;;9.70;5.97;;;11.60;99.90;;;;;;4975635;28;20190;-79
2022/05/08 02:58:43;;;;;;;12.73;5.27;;;11.50;99.90;;;;;;4976663;28;20197;-79
2022/05/08 03:01:08;;;;;;;8.33;6.63;;;11.50;99.90;;;;;;4975598;28;20206;-80
2022/05/08 03:03:35;;;;;;;7.53;5.93;;;11.50;99.90;;;;;;4975436;28;20178;-79
2022/05/08 03:06:00;;;;;;;10.47;6.03;;;11.50;99.90;;;;;;4975734;28;20182;-78
2022/05/08 03:08:26;;;;;;;11.83;6.63;;;11.50;99.90;;;;;;4975943;28;20221;-79
2022/05/08 03:13:37;;;;;;;15.30;8.27;;;11.40;99.90;;;;;;4976572;28;20189;-79
2022/05/08 03:16:04;;;;;;;12.03;8.10;;;11.40;99.90;;;;;;4975077;28;20182;-78
2022/05/08 03:18:29;;;;;;;15.97;8.73;;;11.40;99.90;;;;;;4976405;28;20196;-79
2022/05/08 03:20:56;;;;;;;17.70;10.50;;;11.40;99.90;;;;;;4984285;28;20249;-79
2022/05/08 03:23:22;;;;;;;15.57;10.37;;;11.40;99.90;;;;;;4988898;28;20192;-79
2022/05/08 03:25:47;;;;;;;14.83;11.03;;;11.40;99.90;;;;;;4982191;28;20174;-79
2022/05/08 03:28:13;;;;;;;19.77;10.80;;;11.30;99.90;;;;;;4975869;28;20202;-79
2022/05/08 03:30:42;;;;;;;19.97;12.20;;;11.30;99.90;;;;;;4975144;28;20191;-79
2022/05/08 03:33:09;;;;;;;19.70;12.87;;;11.30;99.90;;;;;;4976026;28;20336;-80
2022/05/08 03:35:35;;;;;;;18.87;11.87;;;11.20;99.90;;;;;;4976164;28;20174;-79
2022/05/08 03:38:01;;;;;;;16.43;11.30;;;11.20;99.90;;;;;;4975418;28;20324;-79
2022/05/08 03:40:27;;;;;;;20.27;12.60;;;11.20;99.90;;;;;;4974482;28;20620;-79
2022/05/08 03:42:55;;;;;;;16.93;11.33;;;11.20;99.90;;;;;;4975254;28;20189;-78
2022/05/08 03:45:21;;;;;;;20.90;11.60;;;11.20;99.90;;;;;;4974556;28;20240;-79
2022/05/08 03:47:51;;;;;;;16.67;11.00;;;11.10;99.90;;;;;;4975766;28;20641;-79
2022/05/08 03:50:20;;;;;;;16.40;10.20;;;11.10;99.90;;;;;;4976218;28;20204;-79
2022/05/08 03:52:46;;;;;;;16.27;11.47;;;11.10;99.90;;;;;;4975754;28;20214;-79
2022/05/08 03:55:13;;;;;;;16.30;10.70;;;11.10;99.90;;;;;;4974022;28;20547;-79
2022/05/08 03:57:39;;;;;;;14.73;9.70;;;11.10;99.90;;;;;;4973891;28;20186;-78
2022/05/08 04:00:05;;;;;;;14.43;10.07;;;11.00;99.90;;;;;;4976233;28;20587;-80
2022/05/08 04:02:31;;;;;;;15.00;10.20;;;11.00;99.90;;;;;;4959043;28;20232;-79
2022/05/08 04:04:56;;;;;;;17.20;11.27;;;10.90;99.90;;;;;;4976771;28;20667;-79
2022/05/08 04:07:22;;;;;;;16.17;10.37;;;10.90;99.90;;;;;;4977007;28;20194;-79
2022/05/08 04:09:47;;;;;;;19.53;10.97;;;10.80;99.90;;;;;;4980907;28;20210;-82
2022/05/08 04:12:13;;;;;;;16.70;8.80;;;10.80;99.90;;;;;;4983961;28;20271;-78
2022/05/08 04:14:38;;;;;;;17.43;9.63;;;10.70;99.90;;;;;;4982029;28;20561;-79
2022/05/08 04:17:04;;;;;;;14.50;9.17;;;10.80;99.90;;;;;;4981552;28;20186;-78
2022/05/08 04:19:30;;;;;;;18.03;9.37;;;10.70;99.90;;;;;;4974695;28;20306;-79
2022/05/08 04:24:16;;;;;;;13.53;9.40;;;10.80;99.90;;;;;;4975514;28;20175;-79
2022/05/08 04:24:41;;;;;;;13.40;8.87;;;10.70;99.90;;;;;;4975274;28;20197;-79
2022/05/08 04:27:07;;;;;;;13.83;8.73;;;10.70;99.90;;;;;;4975741;28;20167;-79
2022/05/08 04:29:32;;;;;;;15.50;9.53;;;10.70;99.90;;;;;;4975476;28;20198;-78
2022/05/08 04:31:58;;;;;;;12.87;9.03;;;10.70;99.90;;;;;;4974879;28;20587;-80
2022/05/08 04:34:23;;;;;;;15.43;9.47;;;10.60;99.90;;;;;;4974043;28;20205;-80
2022/05/08 04:36:49;;;;;;;15.30;8.87;;;10.70;99.90;;;;;;4975925;28;20187;-79
2022/05/08 04:39:15;;;;;;;15.27;9.17;;;10.60;99.90;;;;;;4976441;28;20202;-80
2022/05/08 04:41:40;;;;;;;19.17;8.90;;;10.70;99.90;;;;;;4974504;28;20182;-79
2022/05/08 04:44:06;;;;;;;15.87;9.73;;;10.70;99.90;;;;;;4973549;28;20707;-79
2022/05/08 04:46:31;;;;;;;14.03;8.90;;;10.70;99.90;;;;;;4975929;28;20236;-79
2022/05/08 04:48:57;;;;;;;21.30;9.80;;;10.60;99.90;;;;;;4974412;28;20289;-80
2022/05/08 04:51:23;;;;;;;16.67;9.20;;;10.60;99.90;;;;;;4976023;28;20178;-79
2022/05/08 04:53:48;;;;;;;12.87;9.27;;;10.60;99.90;;;;;;4974589;28;20177;-79
2022/05/08 04:56:14;;;;;;;13.83;9.77;;;10.60;99.90;;;;;;4974626;28;20265;-79
2022/05/08 04:58:40;;;;;;;17.67;10.33;;;10.60;99.90;;;;;;4973041;28;20233;-79
2022/05/08 05:01:06;;;;;;;17.70;10.57;;;10.60;99.90;;;;;;4975970;28;20220;-80
2022/05/08 05:03:32;;;;;;;20.23;11.07;;;10.60;99.90;;;;;;4974566;28;20186;-79
2022/05/08 05:05:57;;;;;;;20.10;9.83;;;10.70;99.90;;;;;;4973273;28;20186;-79
2022/05/08 05:08:23;;;;;;;20.07;10.23;;;10.60;99.90;;;;;;4973850;28;20229;-79
2022/05/08 05:10:49;;;;;;;21.97;11.23;;;10.70;99.90;;;;;;4974334;28;20170;-79
2022/05/08 05:13:15;;;;;;;15.93;10.03;;;10.60;99.90;;;;;;4972676;28;20198;-79
2022/05/08 05:15:40;;;;;;;19.13;10.43;;;10.50;99.90;;;;;;4973621;28;20255;-79
2022/05/08 05:18:07;;;;;;;16.67;10.20;;;10.60;99.90;;;;;;4974493;28;20187;-79
2022/05/08 05:20:32;;;;;;;17.77;10.13;;;10.60;99.90;;;;;;4974362;28;20666;-78
2022/05/08 05:23:02;;;;;;;23.23;11.10;;;10.70;99.90;;;;;;4973786;28;20182;-78
2022/05/08 05:25:28;;;;;;;14.37;9.97;;;10.70;99.90;;;;;;4972623;28;20200;-79
2022/05/08 05:27:54;;;;;;;19.83;10.27;;;10.70;99.90;;;;;;4975200;28;20178;-80
2022/05/08 05:30:20;;;;;;;13.00;9.80;;;10.80;99.90;;;;;;4974690;28;20178;-79
2022/05/08 05:32:45;;;;;;;20.87;11.00;;;10.70;99.90;;;;;;4973984;28;20246;-79
2022/05/08 05:35:11;;;;;;;17.53;10.37;;;10.70;99.90;;;;;;4973830;28;20177;-79
2022/05/08 05:37:37;;;;;;;21.60;10.67;;;10.70;99.90;;;;;;4973378;28;20179;-78
2022/05/08 05:40:03;;;;;;;23.17;11.03;;;10.70;99.90;;;;;;4972852;28;20186;-79
2022/05/08 05:42:30;;;;;;;22.10;11.17;;;10.80;99.90;;;;;;4971599;28;20584;-79
2022/05/08 05:44:56;;;;;;;20.73;11.67;;;10.80;99.90;;;;;;4973067;28;20246;-78
2022/05/08 05:50:06;;;;;;;18.73;10.90;;;10.80;99.90;;;;;;4979305;28;20166;-78
2022/05/08 05:52:35;;;;;;;18.27;9.97;;;10.90;99.90;;;;;;4981010;28;20193;-78
2022/05/08 05:55:01;;;;;;;21.03;10.47;;;10.80;99.90;;;;;;4982118;28;20263;-78
2022/05/08 05:57:26;;;;;;;21.90;10.00;;;10.80;99.90;;;;;;4979982;28;20182;-78
2022/05/08 05:59:52;;;;;;;23.87;9.93;;;10.80;99.90;;;;;;4979915;28;20198;-78
2022/05/08 06:02:17;;;;;;;14.60;9.77;;;10.80;99.90;;;;;;4982954;28;20185;-79
2022/05/08 06:04:43;;;;;;;18.03;10.10;;;10.80;99.90;;;;;;4980111;28;20591;-77
2022/05/08 06:07:08;;;;;;;19.07;9.63;;;10.80;99.90;;;;;;4977762;28;20197;-79
2022/05/08 06:09:34;;;;;;;20.23;9.80;;;10.90;99.90;;;;;;4978822;28;20206;-79
2022/05/08 06:11:59;;;;;;;20.27;9.77;;;10.80;99.90;;;;;;4975984;28;20213;-79
2022/05/08 06:14:25;;;;;;;24.27;10.57;;;10.80;99.90;;;;;;4975592;28;20175;-80
2022/05/08 06:16:51;;;;;;;21.37;9.73;;;10.90;99.90;;;;;;4983296;28;20534;-78
2022/05/08 06:19:16;;;;;;;18.90;10.13;;;10.90;99.90;;;;;;4983588;28;20194;-78
2022/05/08 06:21:42;;;;;;;18.07;9.33;;;10.90;99.90;;;;;;4987885;28;20182;-78
2022/05/08 06:24:07;;;;;;;20.70;9.23;;;10.90;99.90;;;;;;4986280;28;20324;-78
2022/05/08 06:26:33;;;;;;;22.97;8.33;;;10.90;99.90;;;;;;4981809;28;20186;-77
2022/05/08 06:28:59;;;;;;;15.37;8.37;;;10.90;99.90;;;;;;4979923;28;20198;-78
2022/05/08 06:31:25;;;;;;;23.97;8.37;;;10.90;99.90;;;;;;4975121;28;20171;-79
2022/05/08 06:33:51;;;;;;;18.17;8.20;;;10.90;99.90;;;;;;4975592;28;20166;-80
2022/05/08 06:36:16;;;;;;;16.93;7.97;;;11.00;99.90;;;;;;4973395;28;20175;-79
2022/05/08 06:38:42;;;;;;;18.40;8.20;;;11.00;99.90;;;;;;4974478;28;20194;-79
2022/05/08 06:41:08;;;;;;;22.30;8.33;;;11.10;99.90;;;;;;4973657;28;20224;-79
2022/05/08 06:43:33;;;;;;;18.17;7.30;;;11.10;99.90;;;;;;4975837;28;20257;-80
2022/05/08 06:45:59;;;;;;;23.10;7.80;;;11.20;99.90;;;;;;4976589;28;20227;-80
2022/05/08 06:48:27;;;;;;;17.73;8.43;;;11.20;99.90;;;;;;4977020;28;20226;-80
2022/05/08 06:50:52;;;;;;;19.10;7.87;;;11.30;99.90;;;;;;4978400;28;20166;-80
2022/05/08 06:53:18;;;;;;;20.47;6.77;;;11.30;99.90;;;;;;4978049;28;20221;-79
2022/05/08 06:55:45;;;;;;;18.27;6.83;;;11.40;99.90;;;;;;4979878;28;20174;-78
2022/05/08 06:58:11;;;;;;;18.07;6.30;;;11.40;99.90;;;;;;4979199;28;20194;-79
2022/05/08 07:03:20;;;;;;;21.43;6.73;;;11.70;99.90;;;;;;4980423;28;20224;-78
2022/05/08 07:05:47;;;;;;;24.17;6.07;;;11.70;99.90;;;;;;4976893;28;20178;-79
2022/05/08 07:08:14;;;;;;;22.37;7.07;;;11.90;99.90;;;;;;4976722;28;20293;-79
2022/05/08 07:10:40;;;;;;;19.43;6.37;;;12.00;99.90;;;;;;4976924;28;20171;-79
2022/05/08 07:13:05;;;;;;;16.30;6.17;;;12.00;99.90;;;;;;4975542;28;20301;-79
2022/05/08 07:15:31;;;;;;;13.33;5.50;;;12.20;99.90;;;;;;4976410;28;20215;-79
2022/05/08 07:17:56;;;;;;;16.07;5.40;;;12.20;99.90;;;;;;4974813;28;20182;-79
2022/05/08 07:20:23;;;;;;;15.27;4.73;;;12.40;1.00;;;;;;4974866;28;20185;-79
2022/05/08 07:22:49;;;;;;;15.17;4.40;;;12.30;1.00;;;;;;4976968;28;20555;-79
2022/05/08 07:25:14;;;;;;;17.13;5.33;;;12.40;1.00;;;;;;4975149;28;20186;-79
2022/05/08 07:27:40;;;;;;;12.83;4.87;;;12.40;99.90;;;;;;4974215;28;20225;-79
2022/05/08 07:30:07;;;;;;;13.73;4.83;;;12.50;99.90;;;;;;4975299;28;20212;-79
2022/05/08 07:32:36;;;;;;;15.37;4.77;;;12.50;1.00;;;;;;4975077;28;20209;-79
2022/05/08 07:37:46;;;;;;;12.23;4.13;;;12.60;1.00;;;;;;4975848;28;20189;-78
2022/05/08 07:40:12;;;;;;;10.33;4.00;;;12.50;99.90;;;;;;4975187;28;20178;-79
2022/05/08 07:42:38;;;;;;;17.60;5.03;;;12.60;1.00;;;;;;4975438;28;20190;-79
2022/05/08 07:45:05;;;;;;;17.57;3.87;;;12.60;1.00;;;;;;4974003;28;20179;-79
2022/05/08 07:47:31;;;;;;;21.00;4.77;;;12.60;1.00;;;;;;4974847;28;20216;-77
2022/05/08 07:49:57;;;;;;;12.47;3.97;;;12.60;99.90;;;;;;4973811;28;20198;-78
2022/05/08 07:52:22;;;;;;;16.27;4.60;;;12.70;99.90;;;;;;4973652;28;20217;-79
2022/05/08 07:54:48;;;;;;;15.90;4.40;;;12.60;99.90;;;;;;4974309;28;20227;-78
2022/05/08 07:57:14;;;;;;;14.87;4.17;;;12.70;1.00;;;;;;4973739;28;20186;-79
2022/05/08 07:59:39;;;;;;;14.50;4.17;;;12.60;1.00;;;;;;4973470;28;20224;-79
2022/05/08 08:02:05;;;;;;;14.90;4.20;;;12.60;1.00;;;;;;4974487;28;20186;-78
2022/05/08 08:04:31;;;;;;;13.93;4.63;;;12.60;1.00;;;;;;4973795;28;20182;-79
2022/05/08 08:06:57;;;;;;;13.97;4.00;;;12.60;99.90;;;;;;4974782;28;20202;-78
2022/05/08 08:09:23;;;;;;;17.30;4.00;;;12.60;99.90;;;;;;4972967;28;20229;-78
2022/05/08 08:11:49;;;;;;;15.43;4.20;;;12.60;99.90;;;;;;4974766;28;20217;-78
2022/05/08 08:14:15;;;;;;;14.53;3.80;;;12.70;1.00;;;;;;4974747;28;20232;-78
2022/05/08 08:16:41;;;;;;;16.63;4.70;;;12.60;1.00;;;;;;4974777;28;20182;-78
2022/05/08 08:19:07;;;;;;;12.67;3.87;;;12.70;99.90;;;;;;4974287;28;20201;-78
2022/05/08 08:21:33;;;;;;;14.33;3.57;;;12.70;99.90;;;;;;4974579;28;20544;-78
2022/05/08 08:23:59;;;;;;;15.37;3.73;;;12.80;1.00;;;;;;4974453;28;20178;-78
2022/05/08 08:26:25;;;;;;;13.87;3.90;;;12.80;1.00;;;;;;4974314;28;20178;-78
2022/05/08 08:28:50;;;;;;;12.93;3.03;;;12.80;1.00;;;;;;4972803;28;20198;-78
2022/05/08 08:31:16;;;;;;;13.03;3.43;;;12.90;99.90;;;;;;4975650;28;20267;-79
2022/05/08 08:33:44;;;;;;;17.60;4.13;;;13.00;99.90;;;;;;4975995;28;20280;-79
2022/05/08 08:36:10;;;;;;;14.67;4.03;;;13.10;1.00;;;;;;4974619;28;20175;-79
2022/05/08 08:38:36;;;;;;;14.97;3.30;;;13.10;4.80;;;;;;4974269;28;20278;-79
2022/05/08 08:41:04;;;;;;;14.47;4.17;;;13.20;1.00;;;;;;4973128;28;20174;-78
2022/05/08 08:47:42;;;;;;;16.13;3.93;;;13.10;1.00;;;;;;4974491;28;20246;-79
2022/05/08 08:49:18;;;;;;;9.00;3.07;;;13.20;99.90;;;;;;4974233;28;20213;-79
2022/05/08 08:51:44;;;;;;;10.50;3.40;;;13.20;99.90;;;;;;4974057;28;20171;-79
2022/05/08 08:54:11;;;;;;;17.23;3.73;;;13.30;99.90;;;;;;4973738;28;20170;-78
2022/05/08 08:56:36;;;;;;;15.07;3.90;;;13.30;99.90;;;;;;4973876;28;20182;-78
2022/05/08 08:59:02;;;;;;;12.13;2.83;;;13.40;99.90;;;;;;4973122;28;20201;-78
2022/05/08 09:01:32;;;;;;;16.17;3.43;;;13.50;1.00;;;;;;4973774;28;20179;-78
2022/05/08 09:04:00;;;;;;;9.73;2.97;;;13.50;99.90;;;;;;4974120;28;20182;-78
2022/05/08 09:06:25;;;;;;;18.13;3.60;;;13.50;1.00;;;;;;4973504;28;20185;-79
2022/05/08 09:08:51;;;;;;;11.33;2.83;;;13.60;99.90;;;;;;4973580;28;20222;-78
2022/05/08 09:11:32;;;;;;;14.33;3.07;;;13.60;1.00;;;;;;4974438;28;20189;-78
2022/05/08 09:13:57;;;;;;;10.30;2.77;;;13.60;99.90;;;;;;4973669;28;20559;-78
2022/05/08 09:16:23;;;;;;;9.87;2.73;;;13.80;1.00;;;;;;4973750;28;20174;-78
2022/05/08 09:18:48;;;;;;;11.27;2.97;;;13.80;1.00;;;;;;4973595;28;20198;-77
2022/05/08 09:24:10;;;;;;;10.17;2.83;;;13.90;1.00;;;;;;4992712;28;20168;-78
2022/05/08 09:26:36;;;;;;;7.70;2.03;;;13.90;1.00;;;;;;4989305;28;20249;-78
2022/05/08 09:29:03;;;;;;;8.70;2.63;;;14.00;1.00;;;;;;4977795;28;20264;-78
2022/05/08 09:31:39;;;;;;;8.20;2.57;;;14.10;99.90;;;;;;4974038;28;20261;-77
2022/05/08 09:34:05;;;;;;;12.03;2.50;;;14.20;99.90;;;;;;4974835;28;20208;-78
2022/05/08 09:36:30;;;;;;;13.87;2.97;;;14.20;99.90;;;;;;4975175;28;20568;-76
2022/05/08 09:38:58;;;;;;;8.57;2.80;;;14.30;99.90;;;;;;4974755;28;20201;-78
2022/05/08 09:41:28;;;;;;;11.23;2.83;;;14.40;1.00;;;;;;4972039;28;20304;-78
2022/05/08 09:43:55;;;;;;;7.70;2.23;;;14.60;94.30;;;;;;4973452;28;20171;-78
2022/05/08 09:46:21;;;;;;;10.53;2.83;;;14.60;1.00;;;;;;4973022;28;20181;-78
2022/05/08 09:48:48;;;;;;;10.10;2.50;;;14.50;1.00;;;;;;4972059;28;20226;-78
2022/05/08 09:51:17;;;;;;;11.93;2.43;;;14.60;99.90;;;;;;4973522;28;20182;-79
2022/05/08 09:53:45;;;;;;;10.90;2.77;;;14.70;1.00;;;;;;4973935;28;20259;-77
2022/05/08 09:56:13;;;;;;;12.67;2.60;;;14.60;99.90;;;;;;4971658;28;20224;-78
2022/05/08 09:58:43;;;;;;;8.37;2.33;;;14.70;1.00;;;;;;4971615;28;20190;-79
2022/05/08 10:01:09;;;;;;;8.17;2.30;;;14.60;99.90;;;;;;4971703;28;20546;-78
2022/05/08 10:03:35;;;;;;;11.93;3.00;;;14.60;1.00;;;;;;4973091;28;20230;-79
2022/05/08 10:06:01;;;;;;;9.27;2.70;;;14.50;99.90;;;;;;4973006;28;20175;-78
2022/05/08 10:08:36;;;;;;;9.73;2.50;;;14.60;1.00;;;;;;4972403;28;20294;-77
2022/05/08 10:13:59;;;;;;;12.83;3.17;;;14.70;99.90;;;;;;5052791;28;20202;-74
2022/05/08 10:16:45;;;;;;;12.30;2.90;;;14.70;99.90;;;;;;5034633;28;20640;-75
2022/05/08 10:19:22;;;;;;;7.03;2.33;;;14.80;1.00;;;;;;5055419;28;20178;-76
2022/05/08 10:22:00;;;;;;;8.90;2.40;;;15.00;1.00;;;;;;5038414;28;20162;-76
2022/05/08 10:24:32;;;;;;;9.57;2.97;;;15.00;99.90;;;;;;5056260;28;20148;-75
2022/05/08 10:27:17;;;;;;;12.33;3.27;;;15.10;99.90;;;;;;5056190;28;20541;-75
2022/05/08 10:30:12;;;;;;;11.80;2.40;;;15.30;1.00;;;;;;5038338;28;20325;-75
2022/05/08 10:32:43;;;;;;;9.37;2.27;;;15.40;99.90;;;;;;5055913;28;20546;-75
2022/05/08 10:35:15;;;;;;;8.60;2.27;;;15.40;99.90;;;;;;5056103;28;20645;-75
2022/05/08 10:37:51;;;;;;;8.17;2.43;;;15.40;99.90;;;;;;5056087;28;20164;-75
2022/05/08 10:40:23;;;;;;;8.23;2.50;;;15.50;99.90;;;;;;5056266;28;20215;-75
2022/05/08 10:42:54;;;;;;;7.63;2.30;;;15.50;99.90;;;;;;5038066;28;20175;-75
2022/05/08 10:45:32;;;;;;;11.63;2.77;;;15.60;1.00;;;;;;5056293;28;20313;-75
2022/05/08 10:47:58;;;;;;;7.67;2.90;;;15.70;20.80;;;;;;5038116;28;20171;-75
2022/05/08 10:50:24;;;;;;;9.30;2.43;;;15.70;78.90;;;;;;5037878;28;20751;-75
2022/05/08 10:52:50;;;;;;;7.93;2.87;;;15.80;99.90;;;;;;5037935;28;20226;-76
2022/05/08 10:55:17;;;;;;;11.87;3.43;;;15.90;1.00;;;;;;5037992;28;20171;-77
2022/05/08 10:57:48;;;;;;;11.30;3.23;;;15.90;1.00;;;;;;5055778;28;20247;-75
2022/05/08 11:00:28;;;;;;;8.60;2.70;;;15.90;1.00;;;;;;5037772;28;20669;-76
2022/05/08 11:03:00;;;;;;;11.10;3.13;;;16.00;1.00;;;;;;5055990;28;20159;-75
2022/05/08 11:05:31;;;;;;;9.60;2.60;;;16.10;99.90;;;;;;5055742;28;20175;-77
2022/05/08 11:07:58;;;;;;;11.17;2.70;;;16.00;1.90;;;;;;5055587;28;20155;-75
2022/05/08 11:10:43;;;;;;;9.30;3.23;;;16.10;99.90;;;;;;5055395;28;20218;-75
2022/05/08 11:13:11;;;;;;;8.17;3.00;;;16.10;99.90;;;;;;5055416;28;20195;-75
2022/05/08 11:15:45;;;;;;;12.93;2.80;;;16.10;1.00;;;;;;5037509;28;20179;-75
2022/05/08 11:18:12;;;;;;;13.37;3.23;;;16.10;99.90;;;;;;5037511;28;20160;-75
2022/05/08 11:20:48;;;;;;;12.60;3.07;;;16.20;1.00;;;;;;5055337;28;20195;-76
2022/05/08 11:23:15;;;;;;;8.50;2.70;;;16.30;99.90;;;;;;5055336;28;20151;-76
2022/05/08 11:25:45;;;;;;;11.13;3.00;;;16.30;89.70;;;;;;5055257;28;20657;-75
2022/05/08 11:28:16;;;;;;;10.17;3.00;;;16.40;1.00;;;;;;5054980;28;20190;-75
2022/05/08 11:30:42;;;;;;;9.93;3.10;;;16.50;1.00;;;;;;5055328;28;20223;-76
2022/05/08 11:36:06;;;;;;;6.47;2.57;;;16.70;99.90;;;;;;5055104;28;20194;-75
2022/05/08 11:38:48;;;;;;;10.53;3.27;;;16.90;1.00;;;;;;5054921;28;20167;-76
2022/05/08 11:41:22;;;;;;;8.13;2.50;;;16.90;99.90;;;;;;5055034;28;20184;-76
2022/05/08 11:43:49;;;;;;;9.93;2.47;;;17.00;1.00;;;;;;5054815;28;20183;-75
2022/05/08 11:46:16;;;;;;;6.37;1.90;;;17.10;1.00;;;;;;5055459;28;20178;-76
2022/05/08 11:48:47;;;;;;;9.83;3.23;;;17.20;1.00;;;;;;5055020;28;20258;-76
2022/05/08 11:51:14;;;;;;;8.97;2.50;;;17.30;99.90;;;;;;5054704;28;20187;-76
2022/05/08 11:53:59;;;;;;;9.43;2.37;;;17.30;32.10;;;;;;5054803;28;20204;-76
2022/05/08 11:56:32;;;;;;;7.07;2.37;;;17.40;1.00;;;;;;5054846;28;20532;-76
2022/05/08 11:58:59;;;;;;;8.77;2.50;;;17.30;1.00;;;;;;5036613;28;20661;-76
2022/05/08 12:01:32;;;;;;;15.00;2.70;;;17.40;1.00;;;;;;5054524;28;20179;-76
2022/05/08 12:04:20;;;;;;;8.03;3.10;;;17.30;99.90;;;;;;5055055;28;20156;-75
2022/05/08 12:07:08;;;;;;;8.47;2.77;;;17.30;1.00;;;;;;5054524;28;20202;-75
2022/05/08 12:09:44;;;;;;;11.03;2.73;;;17.40;1.00;;;;;;5054401;28;20200;-76
2022/05/08 12:12:29;;;;;;;8.97;2.60;;;17.50;99.90;;;;;;5054533;28;20269;-75
2022/05/08 12:14:58;;;;;;;9.40;2.40;;;17.50;1.00;;;;;;5036473;28;20176;-76
2022/05/08 12:17:23;;;;;;;6.53;2.07;;;17.60;99.90;;;;;;5054467;28;20187;-76
2022/05/08 12:19:53;;;;;;;6.90;2.47;;;17.70;1.00;;;;;;5036324;28;20200;-76
2022/05/08 12:22:29;;;;;;;7.03;2.10;;;17.80;1.00;;;;;;5054216;28;20187;-76
2022/05/08 12:24:58;;;;;;;7.53;2.30;;;17.80;1.00;;;;;;5036296;28;20258;-76
2022/05/08 12:27:24;;;;;;;7.10;2.40;;;17.90;1.00;;;;;;5054014;28;20202;-76
2022/05/08 12:29:50;;;;;;;9.87;2.63;;;18.00;99.90;;;;;;5054248;28;20199;-76
2022/05/08 12:32:17;;;;;;;7.07;2.43;;;17.90;99.90;;;;;;5054725;28;20237;-78
2022/05/08 12:34:44;;;;;;;6.97;2.17;;;17.90;99.90;;;;;;5036067;28;20203;-76
2022/05/08 12:37:14;;;;;;;8.67;2.50;;;17.90;99.90;;;;;;5036048;28;20182;-76
2022/05/08 12:39:41;;;;;;;7.60;2.30;;;17.90;99.90;;;;;;5035921;28;20621;-76
2022/05/08 12:42:08;;;;;;;11.77;2.53;;;18.00;99.90;;;;;;5053203;28;20694;-76
2022/05/08 12:44:36;;;;;;;5.80;2.37;;;18.00;99.90;;;;;;5036002;28;20215;-76
2022/05/08 12:47:05;;;;;;;8.07;2.13;;;18.10;99.90;;;;;;5035848;28;20182;-77
2022/05/08 12:49:31;;;;;;;9.17;2.20;;;18.10;99.90;;;;;;5053118;28;20624;-76
2022/05/08 12:51:57;;;;;;;8.90;2.07;;;18.00;99.90;;;;;;5053983;28;20176;-77
2022/05/08 12:54:22;;;;;;;7.87;2.63;;;18.00;99.90;;;;;;5036116;28;20232;-76
2022/05/08 12:56:49;;;;;;;6.60;2.53;;;18.20;99.90;;;;;;5054155;28;20176;-76
2022/05/08 13:01:58;;;;;;;6.33;2.03;;;18.20;58.90;;;;;;5053800;28;20179;-76
2022/05/08 13:04:24;;;;;;;5.87;1.87;;;18.30;99.90;;;;;;5053657;28;20629;-76
2022/05/08 13:06:50;;;;;;;4.27;1.80;;;18.30;44.00;;;;;;5053875;28;20554;-76
2022/05/08 13:09:16;;;;;;;7.23;1.90;;;18.50;99.90;;;;;;5053395;28;20235;-76
2022/05/08 13:11:42;;;;;;;7.53;2.23;;;18.40;1.00;;;;;;5035699;28;20647;-76
2022/05/08 13:14:08;;;;;;;6.83;2.10;;;18.50;46.50;;;;;;5035760;28;20191;-76